Airfield :
LOGIN :

Register | Disclaimer

   EN    FR    IT 

 










Legend :    VFR   Marginal VFR   IFR   Intensive IFR   Very Intensive IFR
Visi :
Ceiling :
>= 8 km
>= 3000ft
5 to 8 km
1000 to 3000 ft
1500m to 5 km
500 to 1000 ft
800 to 1500m
200 to 500 ft
< 800m
< 200 ft
Symbols :   Thunderstorms  Fog  Heavy snow  Heavy precipitations  Wind > 20 kt
SIGMETs :     Misc.  Thunderstorms  Icing  Turbulence  Mountain Waves  Volcanic Ashes






- Airport Elevation : 74 ft
- IATA code : MRS


LFML - Marseille / Marignane

EXPIRED METARs :
  • 031530Z AUTO 21010KT CAVOK 33/09 Q1016 NOSIG
  • 032330Z AUTO 23004KT CAVOK 23/17 Q1018 NOSIG
  • 032300Z AUTO 15004KT CAVOK 23/15 Q1017 NOSIG
  • 032230Z AUTO 11003KT CAVOK 23/16 Q1017 NOSIG
  • 032200Z AUTO VRB02KT CAVOK 24/18 Q1017 TEMPO VRB12KT
  • 032130Z AUTO VRB02KT CAVOK 24/19 Q1017 TEMPO VRB12KT
  • 032100Z AUTO 23003KT 200V270 CAVOK 24/18 Q1017 NOSIG

TAF TAF LFML
Valid from the 03 at 21:00 until the 05 at 03:00 UTC


032000Z 0321/0503 VRB02KT CAVOK TX35/0415Z TN23/0403Z
PROB30
TEMPO 0322/0402 VRB12KT
TEMPO 0413/0419 24014KT
ATIS : +33 4 42 31 15 15



MET'MAP, your aeronautical weather chart ! - Copyright ORBIFLY December 2007 - Disclaimer

ORBIFLY MET'MAP TEAM :

Programming & Development : Alexandra Zaïnal
Original concept : Baudouin d'Aumeries
Technical & hardware support : Manuel Goepfert
Assistance : Marc-Olivier Méhu




SOURCES & CREDITS :

   NOAA